Time;durP1;ratioP1;P1;durP2;ratioP2;P2;SDS_P1;SDS_P2;PMS_P1;PMS_P2;Temp;Humidity;BMP_temperature;BMP_pressure;BME280_temperature;BME280_humidity;BME280_pressure;Samples;Min_cycle;Max_cycle;Signal;HPM_P1;HPM_P2
2021/08/31 00:02:28;;;;;;;39.38;13.20;;;;;;;23.61;51.43;99241.84;1782390;80;21316;-76
2021/08/31 00:05:34;;;;;;;29.20;11.88;;;;;;;23.54;51.89;99251.94;1783386;80;21300;-76
2021/08/31 00:08:39;;;;;;;48.60;13.38;;;;;;;23.44;52.12;99245.85;1783422;80;21849;-76
2021/08/31 00:11:45;;;;;;;35.23;12.78;;;;;;;23.36;52.22;99247.00;1783614;80;21875;-76
2021/08/31 00:14:51;;;;;;;32.30;12.37;;;;;;;23.29;52.42;99247.86;1784159;80;21181;-76
2021/08/31 00:18:00;;;;;;;37.33;12.80;;;;;;;23.22;52.54;99238.42;1782987;80;21177;-77
2021/08/31 00:21:04;;;;;;;29.85;11.95;;;;;;;23.16;53.14;99236.21;1783246;80;21196;-76
2021/08/31 00:24:10;;;;;;;44.08;12.53;;;;;;;23.08;53.48;99243.77;1782101;80;21319;-76
2021/08/31 00:27:16;;;;;;;32.28;12.98;;;;;;;23.02;53.51;99246.30;1782992;80;21189;-76
2021/08/31 00:30:22;;;;;;;32.58;12.03;;;;;;;22.94;53.37;99246.31;1782866;80;21887;-76
2021/08/31 00:33:28;;;;;;;37.03;12.78;;;;;;;22.90;53.41;99249.39;1781597;80;21300;-76
2021/08/31 00:36:35;;;;;;;34.53;13.25;;;;;;;22.83;53.59;99242.44;1784119;80;21852;-76
2021/08/31 00:39:39;;;;;;;44.25;12.82;;;;;;;22.78;53.84;99243.84;1783405;80;21280;-76
2021/08/31 00:42:45;;;;;;;37.17;12.30;;;;;;;22.71;53.96;99242.72;1783331;80;21350;-76
2021/08/31 00:45:53;;;;;;;33.75;12.15;;;;;;;22.68;54.09;99246.92;1781265;80;21806;-76
2021/08/31 00:48:59;;;;;;;33.02;12.40;;;;;;;22.68;54.25;99258.63;1781713;80;21728;-76
2021/08/31 00:52:07;;;;;;;34.45;11.93;;;;;;;22.67;54.47;99256.38;1781976;80;21327;-76
2021/08/31 00:55:14;;;;;;;42.27;12.18;;;;;;;22.66;54.69;99257.50;1783138;80;21874;-76
2021/08/31 00:58:20;;;;;;;32.95;12.40;;;;;;;22.65;55.04;99255.00;1781994;80;21307;-76
2021/08/31 01:01:24;;;;;;;37.70;13.80;;;;;;;22.63;55.47;99255.30;1782312;80;21212;-76
2021/08/31 01:04:35;;;;;;;34.08;12.55;;;;;;;22.62;55.67;99256.39;1781887;80;21382;-76
2021/08/31 01:07:41;;;;;;;43.35;13.45;;;;;;;22.59;55.93;99251.39;1783346;80;21367;-76
2021/08/31 01:10:48;;;;;;;48.33;15.83;;;;;;;22.56;55.96;99245.54;1781846;80;21221;-76
2021/08/31 01:13:52;;;;;;;41.45;15.38;;;;;;;22.53;55.99;99249.70;1782964;80;21332;-76
2021/08/31 01:16:59;;;;;;;44.40;14.15;;;;;;;22.52;56.16;99243.03;1782656;80;21600;-76
2021/08/31 01:20:06;;;;;;;44.70;15.05;;;;;;;22.48;56.36;99240.53;1781733;80;21303;-76
2021/08/31 01:23:14;;;;;;;42.05;16.00;;;;;;;22.43;56.38;99242.76;1781767;80;21300;-76
2021/08/31 01:26:22;;;;;;;46.83;15.05;;;;;;;22.38;56.47;99233.84;1782764;80;21323;-76
2021/08/31 01:29:28;;;;;;;61.23;16.48;;;;;;;22.34;56.67;99231.34;1784235;80;21122;-76
2021/08/31 01:32:36;;;;;;;42.45;13.88;;;;;;;22.31;56.95;99233.88;1783659;80;21792;-76
2021/08/31 01:35:42;;;;;;;55.35;15.65;;;;;;;22.27;57.23;99235.55;1781741;80;21283;-76
2021/08/31 01:38:48;;;;;;;49.45;17.30;;;;;;;22.19;57.33;99236.36;1783170;80;21296;-76
2021/08/31 01:44:23;;;;;;;63.33;16.85;;;;;;;22.15;57.57;99234.41;1857049;76;28027;-77
2021/08/31 01:47:29;;;;;;;39.67;14.70;;;;;;;22.11;57.72;99235.55;1750636;82;21298;-77
2021/08/31 01:50:35;;;;;;;53.02;16.97;;;;;;;22.07;58.00;99235.80;1767247;81;21185;-77
2021/08/31 01:53:41;;;;;;;48.87;17.35;;;;;;;22.01;58.17;99237.44;1749581;82;21897;-77
2021/08/31 01:56:47;;;;;;;54.40;17.67;;;;;;;21.95;58.33;99230.48;1768104;81;21265;-77
2021/08/31 01:59:53;;;;;;;38.23;15.65;;;;;;;21.93;58.54;99236.89;1752907;80;21174;-77
2021/08/31 02:03:01;;;;;;;57.60;17.92;;;;;;;21.88;58.58;99237.45;1767242;81;21270;-76
2021/08/31 02:06:01;;;;;;;43.40;16.97;;;;;;;21.81;58.71;99239.65;1781622;80;21184;-77
2021/08/31 02:09:06;;;;;;;40.03;17.42;;;;;;;21.75;58.96;99236.59;1767292;81;21336;-77
2021/08/31 02:12:14;;;;;;;55.80;16.82;;;;;;;21.69;59.37;99237.97;1780166;80;21179;-77
2021/08/31 02:15:19;;;;;;;39.75;15.83;;;;;;;21.65;59.59;99236.84;1767078;81;21833;-77
2021/08/31 02:18:25;;;;;;;41.42;16.50;;;;;;;21.60;59.77;99241.02;1781640;80;21837;-76
2021/08/31 02:21:31;;;;;;;38.30;16.27;;;;;;;21.55;60.17;99241.00;1767804;81;21194;-76
2021/08/31 02:24:37;;;;;;;36.98;16.23;;;;;;;21.50;60.65;99243.77;1780109;80;21330;-76
2021/08/31 02:27:43;;;;;;;52.90;15.48;;;;;;;21.45;60.87;99250.68;1767453;81;21871;-76
2021/08/31 02:30:49;;;;;;;58.50;16.17;;;;;;;21.38;61.25;99249.56;1781808;80;21715;-76
2021/08/31 02:33:56;;;;;;;60.38;17.80;;;;;;;21.33;61.65;99243.15;1766493;81;21874;-76
2021/08/31 02:37:01;;;;;;;37.70;16.17;;;;;;;21.28;62.06;99248.11;1781790;80;21287;-76
2021/08/31 02:40:06;;;;;;;47.58;16.05;;;;;;;21.26;62.53;99249.47;1767303;81;21189;-76
2021/08/31 02:43:12;;;;;;;40.25;15.23;;;;;;;21.22;62.67;99251.12;1780311;80;21909;-76
2021/08/31 02:46:19;;;;;;;33.80;15.75;;;;;;;21.21;63.02;99257.80;1756775;81;21359;-76
2021/08/31 02:49:25;;;;;;;43.52;16.57;;;;;;;21.18;63.18;99255.02;1771854;81;21208;-76
2021/08/31 02:52:31;;;;;;;51.95;16.35;;;;;;;21.14;63.27;99259.45;1755051;81;21840;-76
2021/08/31 02:55:37;;;;;;;35.10;15.30;;;;;;;21.11;63.45;99255.25;1772855;81;21220;-76
2021/08/31 02:58:42;;;;;;;37.90;15.60;;;;;;;21.07;63.62;99263.84;1755907;81;21328;-76
2021/08/31 03:02:07;;;;;;;46.90;15.48;;;;;;;21.01;64.01;99264.94;1771683;81;21755;-76
2021/08/31 03:05:12;;;;;;;52.00;15.48;;;;;;;20.96;64.42;99267.69;1754581;81;21234;-76
2021/08/31 03:08:17;;;;;;;42.60;15.18;;;;;;;20.88;64.79;99270.41;1772813;81;21292;-76
2021/08/31 03:11:23;;;;;;;54.83;18.77;;;;;;;20.82;65.36;99267.89;1755863;81;21189;-76
2021/08/31 03:14:28;;;;;;;44.77;16.62;;;;;;;20.75;65.76;99267.27;1772174;81;22565;-76
2021/08/31 03:17:35;;;;;;;48.55;17.05;;;;;;;20.74;65.98;99265.61;1756245;81;21189;-76
2021/08/31 03:20:40;;;;;;;41.15;16.00;;;;;;;20.74;66.23;99268.38;1772897;81;21323;-76
2021/08/31 03:23:46;;;;;;;45.58;16.12;;;;;;;20.76;66.33;99266.19;1755946;81;21324;-76
2021/08/31 03:26:52;;;;;;;49.38;15.88;;;;;;;20.76;66.08;99264.80;1772760;81;21299;-76
2021/08/31 03:29:57;;;;;;;44.05;17.42;;;;;;;20.76;66.29;99264.80;1755549;81;21848;-76
2021/08/31 03:33:02;;;;;;;43.02;14.43;;;;;;;20.78;66.57;99263.41;1772956;81;21818;-76
2021/08/31 03:36:08;;;;;;;42.88;16.32;;;;;;;20.84;66.54;99271.22;1754408;81;21209;-76
2021/08/31 03:39:15;;;;;;;41.33;15.45;;;;;;;20.88;66.27;99270.97;1773004;81;21795;-76
2021/08/31 03:42:21;;;;;;;40.12;14.90;;;;;;;20.93;66.01;99273.78;1756173;81;22609;-76
2021/08/31 03:45:28;;;;;;;60.05;16.20;;;;;;;20.98;65.86;99275.75;1771474;81;21331;-76
2021/08/31 03:48:34;;;;;;;52.00;16.62;;;;;;;21.04;65.75;99276.08;1756019;81;21178;-76
2021/08/31 03:51:41;;;;;;;58.58;16.40;;;;;;;21.12;65.85;99277.77;1772685;81;21299;-76
2021/08/31 03:54:48;;;;;;;55.20;17.37;;;;;;;21.25;65.85;99275.05;1755506;81;21690;-76
2021/08/31 03:57:53;;;;;;;56.20;20.90;;;;;;;21.38;65.84;99275.16;1773443;81;21287;-76
2021/08/31 04:01:00;;;;;;;56.53;23.20;;;;;;;21.49;66.53;99274.06;1755098;80;21312;-76
2021/08/31 04:03:58;;;;;;;;;;;;;;;21.58;67.35;99272.98;1775152;81;21181;-76
2021/08/31 04:07:04;;;;;;;53.17;19.82;;;;;;;21.67;67.64;99270.78;1756079;81;20291;-76
2021/08/31 04:10:09;;;;;;;47.05;19.48;;;;;;;21.78;67.91;99272.20;1772947;81;21279;-76
2021/08/31 04:13:18;;;;;;;45.60;17.32;;;;;;;21.90;67.95;99274.19;1754348;81;21219;-76
2021/08/31 04:16:23;;;;;;;39.70;15.80;;;;;;;22.05;68.29;99275.59;1771436;81;21314;-76
2021/08/31 04:19:28;;;;;;;50.70;16.48;;;;;;;22.20;68.49;99277.02;1756013;81;21167;-76
2021/08/31 04:22:34;;;;;;;42.67;15.45;;;;;;;22.39;68.67;99277.86;1773043;81;21232;-76
2021/08/31 04:25:40;;;;;;;51.00;14.28;;;;;;;22.57;68.86;99275.91;1755451;81;21939;-76
2021/08/31 04:28:45;;;;;;;51.58;16.60;;;;;;;22.74;68.61;99282.58;1772893;81;21228;-76
2021/08/31 04:31:52;;;;;;;40.95;15.38;;;;;;;22.90;68.78;99284.80;1754772;81;21225;-76
2021/08/31 04:35:02;;;;;;;48.63;14.83;;;;;;;23.08;68.92;99281.41;1772656;81;21318;-77
2021/08/31 04:38:07;;;;;;;48.75;15.83;;;;;;;23.29;69.97;99281.34;1756317;81;21805;-76
2021/08/31 04:41:14;;;;;;;33.42;14.75;;;;;;;23.44;70.05;99270.97;1772764;81;21296;-77
2021/08/31 04:44:20;;;;;;;41.77;14.35;;;;;;;23.62;70.33;99265.30;1754923;81;21705;-76
2021/08/31 04:47:26;;;;;;;57.98;17.10;;;;;;;23.77;70.71;99270.55;1770972;81;21271;-76
2021/08/31 04:50:31;;;;;;;42.75;16.10;;;;;;;23.90;71.01;99272.68;1756029;81;21293;-76
2021/08/31 04:53:36;;;;;;;45.30;16.48;;;;;;;24.05;71.17;99278.19;1769042;79;21290;-76
2021/08/31 04:56:42;;;;;;;41.68;16.42;;;;;;;24.20;70.79;99282.26;1770663;81;21181;-77
2021/08/31 04:59:48;;;;;;;37.65;15.85;;;;;;;24.37;71.09;99288.88;1758495;81;21332;-76
2021/08/31 05:02:55;;;;;;;41.42;16.02;;;;;;;24.52;71.71;99284.28;1768909;81;21249;-76
2021/08/31 05:06:01;;;;;;;41.77;15.60;;;;;;;24.58;72.08;99286.73;1758800;79;21334;-77
2021/08/31 05:09:07;;;;;;;45.58;16.12;;;;;;;24.67;72.25;99291.13;1751285;81;21736;-77
2021/08/31 05:12:14;;;;;;;32.15;16.37;;;;;;;24.79;71.61;99292.95;1741040;81;21232;-77
2021/08/31 05:15:18;;;;;;;28.62;15.68;;;;;;;24.97;71.45;99296.97;1751841;81;21271;-77
2021/08/31 05:18:23;;;;;;;38.90;16.80;;;;;;;25.12;70.87;99301.02;1734387;81;21295;-76
2021/08/31 05:21:29;;;;;;;40.98;16.90;;;;;;;25.28;70.28;99305.91;1754271;81;21194;-76
2021/08/31 05:24:35;;;;;;;35.98;15.93;;;;;;;25.42;70.53;99307.42;1757275;80;21233;-77
2021/08/31 05:27:41;;;;;;;44.85;16.55;;;;;;;25.50;69.26;99305.34;1759871;81;21672;-77
2021/08/31 05:30:46;;;;;;;31.55;16.10;;;;;;;25.58;68.99;99311.69;1745874;81;21229;-77
2021/08/31 05:33:52;;;;;;;39.33;16.75;;;;;;;25.70;68.73;99310.70;1747100;81;21280;-77
2021/08/31 05:36:58;;;;;;;43.98;14.83;;;;;;;25.86;68.29;99307.14;1754871;79;21283;-77
2021/08/31 05:40:03;;;;;;;41.85;17.17;;;;;;;26.00;67.58;99312.26;1750476;80;21328;-77
2021/08/31 05:43:09;;;;;;;37.10;14.70;;;;;;;26.12;67.38;99310.42;1747301;81;21294;-77
2021/08/31 05:46:14;;;;;;;34.92;15.25;;;;;;;26.27;67.24;99309.92;1757453;81;21245;-76
2021/08/31 05:49:19;;;;;;;32.98;16.37;;;;;;;26.33;66.68;99314.30;1745707;80;21311;-77
2021/08/31 05:52:24;;;;;;;50.95;16.45;;;;;;;26.34;66.46;99315.96;1752197;81;21491;-77
2021/08/31 05:55:30;;;;;;;27.98;15.43;;;;;;;26.31;66.39;99315.19;1753339;81;21212;-77
2021/08/31 05:58:36;;;;;;;49.55;17.10;;;;;;;26.30;66.32;99312.09;1749397;80;21344;-78
2021/08/31 06:01:42;;;;;;;29.50;15.50;;;;;;;26.31;66.06;99310.98;1744068;80;21334;-78
2021/08/31 06:04:50;;;;;;;38.53;14.33;;;;;;;26.35;65.63;99310.07;1744552;81;21310;-77
2021/08/31 06:07:56;;;;;;;42.80;15.83;;;;;;;26.38;65.41;99315.62;1744215;81;21188;-78
2021/08/31 06:10:54;;;;;;;31.80;14.38;;;;;;;26.49;65.21;99318.57;1745997;81;21299;-78
2021/08/31 06:14:00;;;;;;;32.20;15.20;;;;;;;26.57;63.71;99318.42;1743877;80;21787;-77
2021/08/31 06:17:06;;;;;;;46.65;15.63;;;;;;;26.62;62.08;99320.56;1756062;79;21199;-77
2021/08/31 06:20:13;;;;;;;43.63;16.42;;;;;;;26.71;60.84;99309.48;1764392;80;21212;-77
2021/08/31 06:23:20;;;;;;;34.30;17.35;;;;;;;26.85;60.45;99320.75;1747830;81;21327;-77
2021/08/31 06:26:27;;;;;;;39.08;14.87;;;;;;;27.01;59.49;99320.17;1737109;81;21429;-77
2021/08/31 06:29:32;;;;;;;39.40;15.00;;;;;;;27.13;58.12;99318.86;1749676;79;21544;-77
2021/08/31 06:32:37;;;;;;;25.10;15.25;;;;;;;27.16;57.28;99323.29;1757379;79;21247;-77
2021/08/31 06:35:43;;;;;;;56.48;15.43;;;;;;;27.11;56.76;99322.56;1737053;81;21313;-77
2021/08/31 06:38:49;;;;;;;48.02;16.73;;;;;;;26.99;56.72;99321.61;1761398;79;21241;-77
2021/08/31 06:41:55;;;;;;;49.25;15.60;;;;;;;27.00;56.32;99326.91;1744829;80;21301;-77
2021/08/31 06:45:01;;;;;;;30.60;14.18;;;;;;;27.03;55.48;99323.23;1744463;81;21178;-77
2021/08/31 06:48:06;;;;;;;34.75;15.48;;;;;;;27.03;55.09;99331.66;1738753;81;21382;-78
2021/08/31 06:51:13;;;;;;;32.08;14.07;;;;;;;27.04;54.93;99343.96;1751613;81;21343;-76
2021/08/31 06:54:18;;;;;;;24.98;12.35;;;;;;;27.09;54.97;99348.11;1768440;80;21199;-77
2021/08/31 06:57:24;;;;;;;26.62;12.03;;;;;;;27.07;54.73;99346.16;1759202;80;21216;-78
2021/08/31 07:00:29;;;;;;;27.48;13.38;;;;;;;27.03;55.11;99346.52;1736271;80;21902;-78
2021/08/31 07:03:35;;;;;;;29.00;13.48;;;;;;;27.01;55.65;99347.41;1756246;79;21319;-77
2021/08/31 07:06:43;;;;;;;21.75;11.97;;;;;;;27.06;55.98;99353.50;1750693;81;21350;-77
2021/08/31 07:09:49;;;;;;;33.05;14.87;;;;;;;27.00;56.52;99359.17;1751107;80;21640;-77
2021/08/31 07:12:54;;;;;;;31.68;13.65;;;;;;;26.97;56.89;99352.80;1754260;80;21342;-78
2021/08/31 07:15:59;;;;;;;30.77;14.70;;;;;;;26.96;57.45;99361.50;1746575;80;21703;-76
2021/08/31 07:19:05;;;;;;;24.43;13.15;;;;;;;26.95;57.54;99364.88;1746784;80;21197;-77
2021/08/31 07:22:10;;;;;;;29.00;12.53;;;;;;;26.98;58.11;99367.66;1755643;81;21392;-77
2021/08/31 07:25:16;;;;;;;28.02;13.40;;;;;;;26.97;58.61;99370.20;1749058;81;21384;-76
2021/08/31 07:28:22;;;;;;;34.92;14.18;;;;;;;27.03;58.57;99375.15;1751320;81;21312;-77
2021/08/31 07:31:28;;;;;;;40.88;15.75;;;;;;;27.12;58.55;99374.16;1719043;81;21291;-77
2021/08/31 07:34:42;;;;;;;54.48;16.77;;;;;;;27.18;57.78;99371.52;1747269;81;21985;-78
2021/08/31 07:37:45;;;;;;;37.83;15.00;;;;;;;27.16;57.98;99382.23;1751623;80;21883;-77
2021/08/31 07:40:50;;;;;;;29.63;15.28;;;;;;;27.12;58.47;99385.39;1739095;81;21772;-77
2021/08/31 07:43:56;;;;;;;31.05;15.65;;;;;;;27.13;58.14;99382.01;1760557;80;21160;-77
2021/08/31 07:47:02;;;;;;;34.85;14.05;;;;;;;27.16;58.06;99383.63;1744808;81;21392;-78
2021/08/31 07:50:10;;;;;;;41.42;14.80;;;;;;;27.21;57.48;99379.91;1733827;81;21874;-78
2021/08/31 07:53:16;;;;;;;27.60;15.00;;;;;;;27.21;57.42;99387.75;1791399;78;21213;-77
2021/08/31 07:56:21;;;;;;;32.35;14.23;;;;;;;27.26;56.30;99387.66;1788597;79;21908;-77
2021/08/31 07:59:27;;;;;;;24.52;14.40;;;;;;;27.25;56.79;99392.19;1795653;78;21812;-78
2021/08/31 08:02:35;;;;;;;35.55;13.78;;;;;;;27.21;56.99;99384.11;1788522;79;21272;-78
2021/08/31 08:05:40;;;;;;;35.75;13.80;;;;;;;27.18;56.88;99381.34;1788445;78;21645;-78
2021/08/31 08:08:46;;;;;;;23.75;13.45;;;;;;;27.23;56.91;99388.84;1786666;78;21861;-78
2021/08/31 08:11:52;;;;;;;22.20;12.50;;;;;;;27.31;56.72;99385.89;1783039;78;22150;-78
2021/08/31 08:14:58;;;;;;;25.65;14.33;;;;;;;27.31;56.53;99390.94;1781999;78;21181;-77
2021/08/31 08:18:03;;;;;;;23.90;14.38;;;;;;;27.33;56.27;99394.83;1786951;79;21322;-78
2021/08/31 08:21:08;;;;;;;25.97;13.88;;;;;;;27.41;56.60;99389.91;1790708;79;21292;-78
2021/08/31 08:24:14;;;;;;;27.30;15.03;;;;;;;27.48;56.13;99382.75;1784327;79;21315;-77
2021/08/31 08:27:19;;;;;;;27.98;16.02;;;;;;;27.50;55.95;99388.05;1786421;79;21346;-76
2021/08/31 08:30:26;;;;;;;24.77;13.10;;;;;;;27.54;56.05;99382.65;1788731;79;21154;-77
2021/08/31 08:33:34;;;;;;;31.00;15.88;;;;;;;27.62;55.90;99389.78;1788727;79;21235;-77
2021/08/31 08:36:40;;;;;;;28.05;16.02;;;;;;;27.68;55.71;99396.12;1787515;79;21280;-80
2021/08/31 08:39:45;;;;;;;23.25;14.53;;;;;;;27.73;55.57;99397.45;1785035;78;21290;-81
2021/08/31 08:42:56;;;;;;;26.85;15.68;;;;;;;27.78;55.92;99402.14;1786264;79;21806;-80
2021/08/31 08:45:59;;;;;;;30.77;16.87;;;;;;;27.82;55.11;99404.02;1777484;79;21725;-83
2021/08/31 08:49:05;;;;;;;19.23;13.78;;;;;;;27.79;55.14;99398.19;1787897;79;21812;-77
2021/08/31 08:52:10;;;;;;;27.40;16.02;;;;;;;27.73;55.67;99389.03;1803259;77;21228;-77
2021/08/31 08:55:17;;;;;;;28.62;15.85;;;;;;;27.68;55.34;99406.79;1800912;79;21404;-77
2021/08/31 08:58:23;;;;;;;27.00;14.40;;;;;;;27.65;55.41;99408.81;1801520;77;21688;-77
2021/08/31 09:01:28;;;;;;;26.05;14.03;;;;;;;27.65;55.60;99407.40;1804570;79;21272;-77
2021/08/31 09:04:54;;;;;;;24.27;13.18;;;;;;;27.73;55.97;99417.95;1799586;77;21299;-76
2021/08/31 09:08:00;;;;;;;15.75;10.70;;;;;;;27.80;55.97;99411.08;1803691;79;21164;-76
2021/08/31 09:11:07;;;;;;;22.55;13.65;;;;;;;27.90;55.62;99409.45;1804097;77;21946;-76
2021/08/31 09:14:30;;;;;;;21.87;12.50;;;;;;;27.88;55.73;99405.56;1803249;77;21946;-76
2021/08/31 09:17:35;;;;;;;25.40;12.35;;;;;;;27.85;55.44;99416.02;1798822;79;21323;-76
2021/08/31 09:20:45;;;;;;;26.40;12.80;;;;;;;27.80;55.36;99416.13;1800012;79;21210;-76
2021/08/31 09:23:50;;;;;;;21.07;12.60;;;;;;;27.79;55.25;99416.44;1806845;77;21250;-77
2021/08/31 09:26:56;;;;;;;34.98;12.28;;;;;;;27.77;54.86;99420.98;1791555;79;21271;-79
2021/08/31 09:30:01;;;;;;;24.37;13.80;;;;;;;27.79;54.90;99420.66;1748096;79;21338;-78
2021/08/31 09:33:16;;;;;;;24.37;13.88;;;;;;;27.84;54.31;99426.17;1810311;79;21212;-77
2021/08/31 09:36:29;;;;;;;20.23;12.15;;;;;;;27.74;54.37;99423.83;1804485;77;21283;-77
2021/08/31 09:39:36;;;;;;;17.82;11.03;;;;;;;27.70;54.53;99415.73;1803957;79;21329;-77
2021/08/31 09:43:17;;;;;;;28.10;14.55;;;;;;;27.61;55.00;99413.38;1801229;79;21291;-78
2021/08/31 09:46:24;;;;;;;28.95;13.25;;;;;;;27.61;55.04;99427.42;1797600;79;21591;-79
2021/08/31 09:49:41;;;;;;;21.52;12.33;;;;;;;27.62;55.00;99429.11;1803559;77;21596;-79
2021/08/31 09:52:47;;;;;;;18.23;11.70;;;;;;;27.63;54.81;99429.36;1794646;78;21319;-80
2021/08/31 09:55:47;;;;;;;18.95;11.22;;;;;;;27.65;54.94;99430.45;1783790;78;21169;-79
2021/08/31 09:58:54;;;;;;;18.87;10.63;;;;;;;27.68;54.92;99438.27;1789402;78;21296;-78
2021/08/31 10:02:00;;;;;;;19.80;12.20;;;;;;;27.68;54.56;99443.88;1784258;79;21618;-79
2021/08/31 10:05:05;;;;;;;21.77;11.08;;;;;;;27.69;54.53;99439.92;1788167;78;21237;-79
2021/08/31 10:08:12;;;;;;;17.98;10.43;;;;;;;27.68;54.62;99440.50;1789504;79;21224;-79
2021/08/31 10:11:18;;;;;;;19.80;12.23;;;;;;;27.74;53.21;99439.86;1781148;79;22113;-78
2021/08/31 10:14:22;;;;;;;25.65;11.57;;;;;;;27.72;53.92;99440.17;1772471;79;21326;-78
2021/08/31 10:17:32;;;;;;;19.50;11.63;;;;;;;27.73;54.63;99441.83;1774178;79;21609;-78
2021/08/31 10:20:41;;;;;;;16.82;11.15;;;;;;;27.80;54.00;99453.22;1786799;79;21122;-80
2021/08/31 10:23:53;;;;;;;20.82;12.10;;;;;;;27.76;53.85;99455.84;1768552;79;21180;-78
2021/08/31 10:27:00;;;;;;;21.75;13.40;;;;;;;27.74;53.73;99456.71;1786360;78;21177;-78
2021/08/31 10:30:30;;;;;;;22.58;12.50;;;;;;;27.72;53.84;99460.41;1778291;79;21201;-77
2021/08/31 10:33:45;;;;;;;20.57;11.60;;;;;;;27.78;53.69;99458.33;1786763;78;21926;-76
2021/08/31 10:36:51;;;;;;;16.65;10.63;;;;;;;27.92;53.26;99461.98;1782948;79;21828;-76
2021/08/31 10:40:04;;;;;;;19.05;11.03;;;;;;;28.00;52.99;99473.91;1782479;78;21723;-76
2021/08/31 10:43:12;;;;;;;18.25;12.03;;;;;;;28.03;52.28;99457.23;1790085;78;21330;-77
2021/08/31 10:46:20;;;;;;;20.13;12.93;;;;;;;28.10;53.41;99474.27;1785256;79;21219;-77
2021/08/31 10:49:27;;;;;;;24.98;12.43;;;;;;;28.05;52.92;99468.19;1780407;79;21335;-77
2021/08/31 10:53:04;;;;;;;15.63;10.95;;;;;;;27.97;53.04;99477.33;1787612;78;21292;-78
2021/08/31 10:56:30;;;;;;;24.18;13.68;;;;;;;27.77;53.65;99482.78;1788952;78;21337;-78
2021/08/31 10:59:42;;;;;;;21.75;14.18;;;;;;;27.77;53.65;99482.78;1800642;78;21241;-77
2021/08/31 11:02:58;;;;;;;25.65;14.03;;;;;;;27.74;54.04;99482.83;1775366;78;21316;-76
2021/08/31 11:06:20;;;;;;;26.17;14.58;;;;;;;27.62;54.31;99488.09;1787288;78;21343;-77
2021/08/31 11:09:27;;;;;;;21.12;13.15;;;;;;;27.60;54.44;99486.15;1792034;78;21283;-77
2021/08/31 11:12:35;;;;;;;28.12;12.53;;;;;;;27.67;54.18;99484.36;1783132;78;22409;-78
2021/08/31 11:15:39;;;;;;;20.55;10.60;;;;;;;27.72;53.57;99494.12;1784793;79;21279;-78
2021/08/31 11:18:45;;;;;;;15.00;10.95;;;;;;;27.63;53.49;99492.56;1789763;79;21287;-78
2021/08/31 11:21:55;;;;;;;24.75;11.78;;;;;;;27.55;53.09;99493.27;1785748;78;21245;-78
2021/08/31 11:25:03;;;;;;;25.97;10.72;;;;;;;27.55;53.52;99497.48;1788168;79;21741;-78
2021/08/31 11:28:20;;;;;;;17.80;10.30;;;;;;;27.57;53.17;99502.23;1784985;78;21264;-78
2021/08/31 11:31:32;;;;;;;18.98;11.97;;;;;;;27.53;53.07;99495.56;1799604;78;21754;-78
2021/08/31 11:34:37;;;;;;;16.52;11.35;;;;;;;27.45;52.80;99494.86;1783153;78;21309;-78
2021/08/31 11:37:57;;;;;;;18.50;11.73;;;;;;;27.39;53.02;99503.95;1789010;78;21279;-78
2021/08/31 11:41:03;;;;;;;25.82;12.58;;;;;;;27.34;53.54;99497.59;1775994;78;21310;-78
2021/08/31 11:44:24;;;;;;;22.70;12.05;;;;;;;27.36;53.79;99493.89;1777959;79;21300;-78
2021/08/31 11:47:30;;;;;;;24.98;13.20;;;;;;;27.40;53.42;99497.19;1776558;79;21597;-78
2021/08/31 11:50:35;;;;;;;19.27;11.55;;;;;;;27.41;53.29;99497.44;1782672;79;21543;-78
2021/08/31 11:53:39;;;;;;;19.07;11.95;;;;;;;27.43;53.62;99505.55;1788661;79;21846;-78
2021/08/31 11:56:45;;;;;;;26.27;12.85;;;;;;;27.48;52.89;99502.68;1783899;79;21660;-77
2021/08/31 11:59:55;;;;;;;17.25;11.20;;;;;;;27.50;52.32;99508.23;1788854;79;21138;-79
2021/08/31 12:03:00;;;;;;;22.05;12.43;;;;;;;27.60;51.85;99505.81;1782071;78;21294;-78
2021/08/31 12:06:17;;;;;;;22.58;11.03;;;;;;;27.66;51.78;99498.12;1793133;78;21164;-77
2021/08/31 12:09:28;;;;;;;21.30;12.82;;;;;;;27.70;51.03;99504.22;1785096;79;21260;-76
2021/08/31 12:12:34;;;;;;;21.25;13.10;;;;;;;27.62;50.17;99501.28;1768779;79;21153;-76
2021/08/31 12:15:40;;;;;;;16.05;12.37;;;;;;;27.53;51.25;99501.18;1772343;79;21814;-76
2021/08/31 12:18:45;;;;;;;23.83;12.95;;;;;;;27.53;51.57;99501.18;1782656;79;21290;-76
2021/08/31 12:21:49;;;;;;;24.65;12.95;;;;;;;27.56;51.09;99510.38;1763633;79;21693;-76
2021/08/31 12:25:00;;;;;;;15.95;12.43;;;;;;;27.45;50.82;99511.70;1781474;78;21330;-77
2021/08/31 12:28:10;;;;;;;19.65;13.62;;;;;;;27.30;51.33;99514.78;1783515;79;21150;-76
2021/08/31 12:31:18;;;;;;;18.32;12.73;;;;;;;26.97;50.82;99502.08;1780536;79;21868;-76
2021/08/31 12:34:37;;;;;;;23.95;14.43;;;;;;;26.97;50.82;99502.08;1778720;79;21216;-76
2021/08/31 12:37:42;;;;;;;26.25;15.68;;;;;;;26.87;51.25;99506.45;1777379;79;21290;-76
2021/08/31 12:41:12;;;;;;;23.12;16.20;;;;;;;26.76;52.15;99509.38;1780763;79;21620;-75
2021/08/31 12:44:23;;;;;;;26.70;19.17;;;;;;;26.72;52.45;99521.51;1782403;78;21318;-75
2021/08/31 12:47:27;;;;;;;26.10;15.53;;;;;;;26.64;52.76;99518.00;1786241;79;21330;-74
2021/08/31 12:50:34;;;;;;;29.87;16.37;;;;;;;26.44;51.91;99507.88;1774861;79;21279;-74
2021/08/31 12:53:51;;;;;;;29.15;18.23;;;;;;;26.35;52.97;99511.91;1785670;79;21826;-75
2021/08/31 12:57:10;;;;;;;29.80;16.82;;;;;;;26.35;53.27;99511.91;1803268;79;21279;-75
2021/08/31 13:00:32;;;;;;;25.40;18.17;;;;;;;26.29;52.59;99509.44;1792759;79;21263;-75
2021/08/31 13:03:39;;;;;;;29.20;17.42;;;;;;;26.21;53.36;99516.56;1801928;79;21661;-75
2021/08/31 13:06:56;;;;;;;21.90;15.38;;;;;;;26.19;53.67;99518.24;1792742;79;21883;-75
2021/08/31 13:10:01;;;;;;;28.75;16.55;;;;;;;26.20;52.98;99515.70;1797547;79;21565;-75
2021/08/31 13:13:08;;;;;;;23.02;15.63;;;;;;;26.17;52.77;99512.12;1791440;79;21179;-75
2021/08/31 13:16:14;;;;;;;30.17;17.40;;;;;;;26.17;53.17;99512.69;1795810;79;21282;-74
2021/08/31 13:19:19;;;;;;;24.10;16.57;;;;;;;26.14;53.11;99508.50;1793390;77;21573;-75
2021/08/31 13:22:25;;;;;;;26.17;18.12;;;;;;;26.16;53.33;99509.59;1795924;79;22615;-75
2021/08/31 13:25:31;;;;;;;26.10;16.75;;;;;;;26.15;53.08;99507.93;1803975;79;21697;-74
2021/08/31 13:28:36;;;;;;;22.05;16.80;;;;;;;26.15;52.79;99501.75;1798609;77;21192;-75
2021/08/31 13:31:42;;;;;;;22.67;15.48;;;;;;;26.17;52.79;99499.50;1804025;79;21176;-75
2021/08/31 13:34:47;;;;;;;24.10;15.83;;;;;;;26.19;52.10;99493.02;1811967;79;21228;-75
2021/08/31 13:37:52;;;;;;;25.92;15.68;;;;;;;26.21;52.25;99496.38;1788269;79;21301;-75
2021/08/31 13:40:58;;;;;;;17.77;13.40;;;;;;;26.23;51.14;99501.10;1799328;79;21192;-75
2021/08/31 13:44:03;;;;;;;20.48;14.15;;;;;;;26.22;51.64;99498.04;1804065;79;21283;-75
2021/08/31 13:47:09;;;;;;;20.85;14.87;;;;;;;26.23;50.93;99496.06;1810516;79;21304;-75
2021/08/31 13:50:15;;;;;;;17.10;13.20;;;;;;;26.22;51.06;99493.00;1797163;79;21272;-75
2021/08/31 13:53:21;;;;;;;19.25;12.50;;;;;;;26.21;50.64;99489.38;1813660;79;21667;-76
2021/08/31 13:56:28;;;;;;;19.48;12.35;;;;;;;26.20;50.12;99486.84;1796389;79;21580;-75
2021/08/31 13:59:34;;;;;;;21.12;11.65;;;;;;;26.18;49.92;99482.13;1786506;79;21950;-75
2021/08/31 14:02:40;;;;;;;15.90;10.72;;;;;;;26.18;49.89;99484.35;1813775;79;21260;-75
2021/08/31 14:05:46;;;;;;;12.85;9.08;;;;;;;26.18;49.18;99479.32;1794257;79;21808;-75
2021/08/31 14:08:51;;;;;;;20.75;9.23;;;;;;;26.18;48.51;99476.52;1814107;79;21292;-75
2021/08/31 14:11:57;;;;;;;17.30;9.70;;;;;;;26.17;47.46;99484.09;1814184;79;21216;-74
2021/08/31 14:15:03;;;;;;;14.83;8.88;;;;;;;26.15;47.16;99479.34;1815486;78;21708;-75
2021/08/31 14:18:08;;;;;;;13.85;9.35;;;;;;;26.16;46.61;99476.83;1815971;79;21262;-74
2021/08/31 14:21:14;;;;;;;11.68;8.20;;;;;;;26.15;46.23;99478.50;1813768;78;21153;-76
2021/08/31 14:24:20;;;;;;;14.23;8.10;;;;;;;26.15;45.92;99481.30;1814391;79;21287;-74